sensor_id;sensor_type;location;lat;lon;timestamp;temperature;humidity
44431;DHT22;30135;47.866;-4.222;2023-04-24T00:00:29;12.30;83.90
44431;DHT22;30135;47.866;-4.222;2023-04-24T00:02:55;12.20;83.90
44431;DHT22;30135;47.866;-4.222;2023-04-24T00:05:22;12.20;84.00
44431;DHT22;30135;47.866;-4.222;2023-04-24T00:07:49;12.20;84.10
44431;DHT22;30135;47.866;-4.222;2023-04-24T00:10:18;12.20;84.10
44431;DHT22;30135;47.866;-4.222;2023-04-24T00:12:44;12.20;84.20
44431;DHT22;30135;47.866;-4.222;2023-04-24T00:15:11;12.20;84.20
44431;DHT22;30135;47.866;-4.222;2023-04-24T00:17:37;12.20;84.30
44431;DHT22;30135;47.866;-4.222;2023-04-24T00:20:04;12.20;84.40
44431;DHT22;30135;47.866;-4.222;2023-04-24T00:22:32;12.20;84.40
44431;DHT22;30135;47.866;-4.222;2023-04-24T00:24:58;12.20;84.40
44431;DHT22;30135;47.866;-4.222;2023-04-24T00:27:25;12.20;84.40
44431;DHT22;30135;47.866;-4.222;2023-04-24T00:29:51;12.20;84.40
44431;DHT22;30135;47.866;-4.222;2023-04-24T00:32:17;12.10;84.30
44431;DHT22;30135;47.866;-4.222;2023-04-24T00:34:43;12.10;84.40
44431;DHT22;30135;47.866;-4.222;2023-04-24T00:37:09;12.10;84.50
44431;DHT22;30135;47.866;-4.222;2023-04-24T00:39:35;12.10;84.50
44431;DHT22;30135;47.866;-4.222;2023-04-24T00:42:01;12.10;84.60
44431;DHT22;30135;47.866;-4.222;2023-04-24T00:44:27;12.10;84.60
44431;DHT22;30135;47.866;-4.222;2023-04-24T00:46:54;12.00;84.80
44431;DHT22;30135;47.866;-4.222;2023-04-24T00:49:22;12.00;84.90
44431;DHT22;30135;47.866;-4.222;2023-04-24T00:51:48;12.00;84.90
44431;DHT22;30135;47.866;-4.222;2023-04-24T00:54:15;12.00;84.90
44431;DHT22;30135;47.866;-4.222;2023-04-24T00:56:42;12.00;85.00
44431;DHT22;30135;47.866;-4.222;2023-04-24T00:59:08;11.90;85.10
44431;DHT22;30135;47.866;-4.222;2023-04-24T01:01:35;11.90;85.10
44431;DHT22;30135;47.866;-4.222;2023-04-24T01:04:01;11.90;85.20
44431;DHT22;30135;47.866;-4.222;2023-04-24T01:06:29;11.90;85.40
44431;DHT22;30135;47.866;-4.222;2023-04-24T01:08:57;11.90;85.50
44431;DHT22;30135;47.866;-4.222;2023-04-24T01:11:25;11.90;85.70
44431;DHT22;30135;47.866;-4.222;2023-04-24T01:13:51;11.90;85.70
44431;DHT22;30135;47.866;-4.222;2023-04-24T01:16:18;11.90;85.80
44431;DHT22;30135;47.866;-4.222;2023-04-24T01:18:46;11.90;85.90
44431;DHT22;30135;47.866;-4.222;2023-04-24T01:21:15;11.80;85.90
44431;DHT22;30135;47.866;-4.222;2023-04-24T01:23:44;11.80;86.00
44431;DHT22;30135;47.866;-4.222;2023-04-24T01:26:12;11.90;86.20
44431;DHT22;30135;47.866;-4.222;2023-04-24T01:28:38;11.80;86.20
44431;DHT22;30135;47.866;-4.222;2023-04-24T01:31:05;11.90;86.50
44431;DHT22;30135;47.866;-4.222;2023-04-24T01:33:31;11.90;86.50
44431;DHT22;30135;47.866;-4.222;2023-04-24T01:35:58;11.90;86.60
44431;DHT22;30135;47.866;-4.222;2023-04-24T01:38:24;11.90;86.70
44431;DHT22;30135;47.866;-4.222;2023-04-24T01:40:51;11.90;86.70
44431;DHT22;30135;47.866;-4.222;2023-04-24T01:43:17;11.90;86.80
44431;DHT22;30135;47.866;-4.222;2023-04-24T01:45:44;11.90;86.90
44431;DHT22;30135;47.866;-4.222;2023-04-24T01:48:11;11.90;87.00
44431;DHT22;30135;47.866;-4.222;2023-04-24T01:50:38;11.90;87.00
44431;DHT22;30135;47.866;-4.222;2023-04-24T01:53:18;11.90;87.00
44431;DHT22;30135;47.866;-4.222;2023-04-24T01:55:50;11.90;87.10
44431;DHT22;30135;47.866;-4.222;2023-04-24T01:58:16;11.90;87.00
44431;DHT22;30135;47.866;-4.222;2023-04-24T02:00:42;12.00;87.00
44431;DHT22;30135;47.866;-4.222;2023-04-24T02:03:08;11.90;87.00
44431;DHT22;30135;47.866;-4.222;2023-04-24T02:05:34;11.90;87.00
44431;DHT22;30135;47.866;-4.222;2023-04-24T02:08:00;12.00;87.10
44431;DHT22;30135;47.866;-4.222;2023-04-24T02:10:26;12.00;87.10
44431;DHT22;30135;47.866;-4.222;2023-04-24T02:12:52;12.00;87.10
44431;DHT22;30135;47.866;-4.222;2023-04-24T02:15:18;12.00;87.10
44431;DHT22;30135;47.866;-4.222;2023-04-24T02:17:44;12.00;87.00
44431;DHT22;30135;47.866;-4.222;2023-04-24T02:20:10;12.00;86.90
44431;DHT22;30135;47.866;-4.222;2023-04-24T02:22:36;12.00;86.90
44431;DHT22;30135;47.866;-4.222;2023-04-24T02:25:02;12.00;86.80
44431;DHT22;30135;47.866;-4.222;2023-04-24T02:27:29;12.00;86.70
44431;DHT22;30135;47.866;-4.222;2023-04-24T02:29:55;12.00;86.70
44431;DHT22;30135;47.866;-4.222;2023-04-24T02:32:21;12.00;86.70
44431;DHT22;30135;47.866;-4.222;2023-04-24T02:34:47;12.00;86.70
44431;DHT22;30135;47.866;-4.222;2023-04-24T02:37:13;12.00;86.70
44431;DHT22;30135;47.866;-4.222;2023-04-24T02:39:39;12.00;86.80
44431;DHT22;30135;47.866;-4.222;2023-04-24T02:42:05;11.90;86.80
44431;DHT22;30135;47.866;-4.222;2023-04-24T02:44:31;11.90;86.80
44431;DHT22;30135;47.866;-4.222;2023-04-24T02:46:57;11.90;87.00
44431;DHT22;30135;47.866;-4.222;2023-04-24T02:49:25;11.90;87.00
44431;DHT22;30135;47.866;-4.222;2023-04-24T02:51:52;12.00;87.20
44431;DHT22;30135;47.866;-4.222;2023-04-24T02:54:18;12.00;87.30
44431;DHT22;30135;47.866;-4.222;2023-04-24T02:56:44;12.00;87.30
44431;DHT22;30135;47.866;-4.222;2023-04-24T02:59:10;12.00;87.40
44431;DHT22;30135;47.866;-4.222;2023-04-24T03:01:36;12.00;87.50
44431;DHT22;30135;47.866;-4.222;2023-04-24T03:04:02;12.00;87.60
44431;DHT22;30135;47.866;-4.222;2023-04-24T03:06:28;12.00;87.60
44431;DHT22;30135;47.866;-4.222;2023-04-24T03:08:56;12.00;87.70
44431;DHT22;30135;47.866;-4.222;2023-04-24T03:11:22;12.00;87.80
44431;DHT22;30135;47.866;-4.222;2023-04-24T03:13:48;12.00;87.80
44431;DHT22;30135;47.866;-4.222;2023-04-24T03:16:14;12.10;88.00
44431;DHT22;30135;47.866;-4.222;2023-04-24T03:18:40;12.10;88.10
44431;DHT22;30135;47.866;-4.222;2023-04-24T03:21:06;12.10;88.20
44431;DHT22;30135;47.866;-4.222;2023-04-24T03:23:32;12.10;88.30
44431;DHT22;30135;47.866;-4.222;2023-04-24T03:25:58;12.10;88.40
44431;DHT22;30135;47.866;-4.222;2023-04-24T03:28:24;12.10;88.40
44431;DHT22;30135;47.866;-4.222;2023-04-24T03:30:51;12.10;88.20
44431;DHT22;30135;47.866;-4.222;2023-04-24T03:33:17;12.20;88.20
44431;DHT22;30135;47.866;-4.222;2023-04-24T03:35:43;12.20;88.00
44431;DHT22;30135;47.866;-4.222;2023-04-24T03:38:09;12.20;87.90
44431;DHT22;30135;47.866;-4.222;2023-04-24T03:40:37;12.20;87.80
44431;DHT22;30135;47.866;-4.222;2023-04-24T03:43:03;12.20;87.70
44431;DHT22;30135;47.866;-4.222;2023-04-24T03:45:29;12.30;87.70
44431;DHT22;30135;47.866;-4.222;2023-04-24T03:47:55;12.30;87.70
44431;DHT22;30135;47.866;-4.222;2023-04-24T03:50:21;12.30;87.70
44431;DHT22;30135;47.866;-4.222;2023-04-24T03:52:47;12.30;87.60
44431;DHT22;30135;47.866;-4.222;2023-04-24T03:55:16;12.30;87.60
44431;DHT22;30135;47.866;-4.222;2023-04-24T03:57:42;12.30;87.50
44431;DHT22;30135;47.866;-4.222;2023-04-24T04:00:08;12.30;87.50
44431;DHT22;30135;47.866;-4.222;2023-04-24T04:02:35;12.30;87.40
44431;DHT22;30135;47.866;-4.222;2023-04-24T04:05:01;12.30;87.40
44431;DHT22;30135;47.866;-4.222;2023-04-24T04:07:27;12.30;87.30
44431;DHT22;30135;47.866;-4.222;2023-04-24T04:09:55;12.30;87.20
44431;DHT22;30135;47.866;-4.222;2023-04-24T04:12:21;12.30;87.10
44431;DHT22;30135;47.866;-4.222;2023-04-24T04:14:47;12.30;87.00
44431;DHT22;30135;47.866;-4.222;2023-04-24T04:17:13;12.30;87.10
44431;DHT22;30135;47.866;-4.222;2023-04-24T04:19:39;12.30;87.00
44431;DHT22;30135;47.866;-4.222;2023-04-24T04:22:05;12.20;87.00
44431;DHT22;30135;47.866;-4.222;2023-04-24T04:24:33;12.20;86.90
44431;DHT22;30135;47.866;-4.222;2023-04-24T04:27:04;12.20;86.80
44431;DHT22;30135;47.866;-4.222;2023-04-24T04:29:31;12.20;86.80
44431;DHT22;30135;47.866;-4.222;2023-04-24T04:31:57;12.20;86.70
44431;DHT22;30135;47.866;-4.222;2023-04-24T04:34:23;12.20;86.70
44431;DHT22;30135;47.866;-4.222;2023-04-24T04:36:49;12.20;87.40
44431;DHT22;30135;47.866;-4.222;2023-04-24T04:39:15;12.20;86.70
44431;DHT22;30135;47.866;-4.222;2023-04-24T04:41:44;12.10;86.60
44431;DHT22;30135;47.866;-4.222;2023-04-24T04:44:12;12.20;86.60
44431;DHT22;30135;47.866;-4.222;2023-04-24T04:46:38;12.10;86.50
44431;DHT22;30135;47.866;-4.222;2023-04-24T04:49:04;12.10;86.60
44431;DHT22;30135;47.866;-4.222;2023-04-24T04:51:30;12.10;86.60
44431;DHT22;30135;47.866;-4.222;2023-04-24T04:53:56;12.10;86.70
44431;DHT22;30135;47.866;-4.222;2023-04-24T04:56:22;12.10;86.70
44431;DHT22;30135;47.866;-4.222;2023-04-24T04:58:48;12.10;86.70
44431;DHT22;30135;47.866;-4.222;2023-04-24T05:01:14;12.10;86.70
44431;DHT22;30135;47.866;-4.222;2023-04-24T05:03:40;12.10;86.70
44431;DHT22;30135;47.866;-4.222;2023-04-24T05:06:06;12.10;86.70
44431;DHT22;30135;47.866;-4.222;2023-04-24T05:08:32;12.10;86.70
44431;DHT22;30135;47.866;-4.222;2023-04-24T05:10:58;12.10;86.60
44431;DHT22;30135;47.866;-4.222;2023-04-24T05:13:31;12.10;86.60
44431;DHT22;30135;47.866;-4.222;2023-04-24T05:15:57;12.10;86.60
44431;DHT22;30135;47.866;-4.222;2023-04-24T05:18:23;12.10;86.60
44431;DHT22;30135;47.866;-4.222;2023-04-24T05:20:49;12.10;86.70
44431;DHT22;30135;47.866;-4.222;2023-04-24T05:23:15;12.10;86.70
44431;DHT22;30135;47.866;-4.222;2023-04-24T05:25:42;12.10;86.70
44431;DHT22;30135;47.866;-4.222;2023-04-24T05:28:08;12.10;86.70
44431;DHT22;30135;47.866;-4.222;2023-04-24T05:30:34;12.10;86.70
44431;DHT22;30135;47.866;-4.222;2023-04-24T05:33:00;12.10;86.70
44431;DHT22;30135;47.866;-4.222;2023-04-24T05:35:26;12.10;86.70
44431;DHT22;30135;47.866;-4.222;2023-04-24T05:37:52;12.10;86.70
44431;DHT22;30135;47.866;-4.222;2023-04-24T05:40:18;12.10;86.70
44431;DHT22;30135;47.866;-4.222;2023-04-24T05:42:44;12.10;86.80
44431;DHT22;30135;47.866;-4.222;2023-04-24T05:45:10;12.10;86.80
44431;DHT22;30135;47.866;-4.222;2023-04-24T05:47:42;12.10;87.00
44431;DHT22;30135;47.866;-4.222;2023-04-24T05:50:10;12.10;87.10
44431;DHT22;30135;47.866;-4.222;2023-04-24T05:52:36;12.10;87.20
44431;DHT22;30135;47.866;-4.222;2023-04-24T05:55:03;12.10;87.20
44431;DHT22;30135;47.866;-4.222;2023-04-24T05:57:29;12.10;87.30
44431;DHT22;30135;47.866;-4.222;2023-04-24T05:59:56;12.10;87.50
44431;DHT22;30135;47.866;-4.222;2023-04-24T06:02:22;12.10;87.50
44431;DHT22;30135;47.866;-4.222;2023-04-24T06:04:48;12.10;87.60
44431;DHT22;30135;47.866;-4.222;2023-04-24T06:07:14;12.10;87.80
44431;DHT22;30135;47.866;-4.222;2023-04-24T06:09:40;12.10;87.80
44431;DHT22;30135;47.866;-4.222;2023-04-24T06:12:06;12.10;87.90
44431;DHT22;30135;47.866;-4.222;2023-04-24T06:14:33;12.10;87.90
44431;DHT22;30135;47.866;-4.222;2023-04-24T06:17:00;12.10;88.00
44431;DHT22;30135;47.866;-4.222;2023-04-24T06:19:26;12.10;88.10
44431;DHT22;30135;47.866;-4.222;2023-04-24T06:21:52;12.20;88.10
44431;DHT22;30135;47.866;-4.222;2023-04-24T06:24:18;12.20;88.30
44431;DHT22;30135;47.866;-4.222;2023-04-24T06:26:44;12.20;88.30
44431;DHT22;30135;47.866;-4.222;2023-04-24T06:29:10;12.20;88.30
44431;DHT22;30135;47.866;-4.222;2023-04-24T06:31:35;12.20;88.40
44431;DHT22;30135;47.866;-4.222;2023-04-24T06:34:05;12.20;88.50
44431;DHT22;30135;47.866;-4.222;2023-04-24T06:36:32;12.20;88.50
44431;DHT22;30135;47.866;-4.222;2023-04-24T06:39:00;12.20;88.60
44431;DHT22;30135;47.866;-4.222;2023-04-24T06:41:26;12.20;88.60
44431;DHT22;30135;47.866;-4.222;2023-04-24T06:43:51;12.30;88.70
44431;DHT22;30135;47.866;-4.222;2023-04-24T06:46:17;12.30;88.70
44431;DHT22;30135;47.866;-4.222;2023-04-24T06:48:43;12.30;88.80
44431;DHT22;30135;47.866;-4.222;2023-04-24T06:51:09;12.30;88.90
44431;DHT22;30135;47.866;-4.222;2023-04-24T06:53:35;12.30;88.90
44431;DHT22;30135;47.866;-4.222;2023-04-24T06:56:01;12.30;88.80
44431;DHT22;30135;47.866;-4.222;2023-04-24T06:58:27;12.30;88.80
44431;DHT22;30135;47.866;-4.222;2023-04-24T07:00:53;12.40;88.90
44431;DHT22;30135;47.866;-4.222;2023-04-24T07:03:19;12.40;88.80
44431;DHT22;30135;47.866;-4.222;2023-04-24T07:05:45;12.40;88.70
44431;DHT22;30135;47.866;-4.222;2023-04-24T07:08:11;12.40;88.70
44431;DHT22;30135;47.866;-4.222;2023-04-24T07:10:38;12.40;88.70
44431;DHT22;30135;47.866;-4.222;2023-04-24T07:13:04;12.40;88.70
44431;DHT22;30135;47.866;-4.222;2023-04-24T07:15:30;12.40;88.80
44431;DHT22;30135;47.866;-4.222;2023-04-24T07:17:57;12.50;88.80
44431;DHT22;30135;47.866;-4.222;2023-04-24T07:20:23;12.50;88.80
44431;DHT22;30135;47.866;-4.222;2023-04-24T07:22:49;12.50;88.80
44431;DHT22;30135;47.866;-4.222;2023-04-24T07:25:15;12.50;88.80
44431;DHT22;30135;47.866;-4.222;2023-04-24T07:27:47;12.50;88.90
44431;DHT22;30135;47.866;-4.222;2023-04-24T07:30:14;12.60;89.00
44431;DHT22;30135;47.866;-4.222;2023-04-24T07:32:40;12.60;89.00
44431;DHT22;30135;47.866;-4.222;2023-04-24T07:35:07;12.70;89.10
44431;DHT22;30135;47.866;-4.222;2023-04-24T07:37:35;12.70;89.20
44431;DHT22;30135;47.866;-4.222;2023-04-24T07:40:01;12.70;89.20
44431;DHT22;30135;47.866;-4.222;2023-04-24T07:42:28;12.80;89.30
44431;DHT22;30135;47.866;-4.222;2023-04-24T07:44:56;12.80;89.30
44431;DHT22;30135;47.866;-4.222;2023-04-24T07:47:22;12.80;89.50
44431;DHT22;30135;47.866;-4.222;2023-04-24T07:49:48;12.90;89.50
44431;DHT22;30135;47.866;-4.222;2023-04-24T07:52:14;12.90;89.40
44431;DHT22;30135;47.866;-4.222;2023-04-24T07:54:39;13.00;89.40
44431;DHT22;30135;47.866;-4.222;2023-04-24T07:57:05;13.00;89.30
44431;DHT22;30135;47.866;-4.222;2023-04-24T07:59:33;13.00;89.30
44431;DHT22;30135;47.866;-4.222;2023-04-24T08:02:00;13.00;89.10
44431;DHT22;30135;47.866;-4.222;2023-04-24T08:04:27;13.10;89.10
44431;DHT22;30135;47.866;-4.222;2023-04-24T08:06:53;13.10;89.00
44431;DHT22;30135;47.866;-4.222;2023-04-24T08:09:19;13.10;88.80
44431;DHT22;30135;47.866;-4.222;2023-04-24T08:11:45;13.10;88.50
44431;DHT22;30135;47.866;-4.222;2023-04-24T08:14:11;13.10;88.40
44431;DHT22;30135;47.866;-4.222;2023-04-24T08:16:38;13.10;88.30
44431;DHT22;30135;47.866;-4.222;2023-04-24T08:19:04;13.20;88.20
44431;DHT22;30135;47.866;-4.222;2023-04-24T08:21:30;13.20;88.10
44431;DHT22;30135;47.866;-4.222;2023-04-24T08:23:57;13.20;88.10
44431;DHT22;30135;47.866;-4.222;2023-04-24T08:26:23;13.20;88.00
44431;DHT22;30135;47.866;-4.222;2023-04-24T08:28:50;13.30;88.00
44431;DHT22;30135;47.866;-4.222;2023-04-24T08:31:16;13.30;88.00
44431;DHT22;30135;47.866;-4.222;2023-04-24T08:33:43;13.30;87.90
44431;DHT22;30135;47.866;-4.222;2023-04-24T08:36:11;13.30;87.90
44431;DHT22;30135;47.866;-4.222;2023-04-24T08:38:37;13.30;88.00
44431;DHT22;30135;47.866;-4.222;2023-04-24T08:41:04;13.30;88.00
44431;DHT22;30135;47.866;-4.222;2023-04-24T08:43:33;13.30;88.00
44431;DHT22;30135;47.866;-4.222;2023-04-24T08:45:59;13.40;88.10
44431;DHT22;30135;47.866;-4.222;2023-04-24T08:48:26;13.40;88.00
44431;DHT22;30135;47.866;-4.222;2023-04-24T08:50:53;13.40;88.00
44431;DHT22;30135;47.866;-4.222;2023-04-24T08:53:19;13.40;88.00
44431;DHT22;30135;47.866;-4.222;2023-04-24T08:55:48;13.40;87.90
44431;DHT22;30135;47.866;-4.222;2023-04-24T08:58:17;13.40;87.90
44431;DHT22;30135;47.866;-4.222;2023-04-24T09:00:45;13.40;87.90
44431;DHT22;30135;47.866;-4.222;2023-04-24T09:03:17;13.40;88.00
44431;DHT22;30135;47.866;-4.222;2023-04-24T09:05:48;13.40;88.00
44431;DHT22;30135;47.866;-4.222;2023-04-24T09:08:17;13.40;88.10
44431;DHT22;30135;47.866;-4.222;2023-04-24T09:10:44;13.50;88.10
44431;DHT22;30135;47.866;-4.222;2023-04-24T09:13:13;13.50;88.00
44431;DHT22;30135;47.866;-4.222;2023-04-24T09:15:41;13.60;88.00
44431;DHT22;30135;47.866;-4.222;2023-04-24T09:18:08;13.60;88.00
44431;DHT22;30135;47.866;-4.222;2023-04-24T09:20:34;13.60;88.00
44431;DHT22;30135;47.866;-4.222;2023-04-24T09:23:01;13.60;87.90
44431;DHT22;30135;47.866;-4.222;2023-04-24T09:25:32;13.60;87.70
44431;DHT22;30135;47.866;-4.222;2023-04-24T09:28:03;13.70;87.70
44431;DHT22;30135;47.866;-4.222;2023-04-24T09:30:32;13.70;87.60
44431;DHT22;30135;47.866;-4.222;2023-04-24T09:33:14;13.70;87.50
44431;DHT22;30135;47.866;-4.222;2023-04-24T09:35:53;13.80;87.30
44431;DHT22;30135;47.866;-4.222;2023-04-24T09:38:22;13.70;87.20
44431;DHT22;30135;47.866;-4.222;2023-04-24T09:41:00;13.80;87.40
44431;DHT22;30135;47.866;-4.222;2023-04-24T09:43:30;13.80;87.40
44431;DHT22;30135;47.866;-4.222;2023-04-24T09:45:58;13.90;87.30
44431;DHT22;30135;47.866;-4.222;2023-04-24T09:48:32;13.90;87.20
44431;DHT22;30135;47.866;-4.222;2023-04-24T09:51:01;13.90;87.10
44431;DHT22;30135;47.866;-4.222;2023-04-24T09:53:29;13.90;87.00
44431;DHT22;30135;47.866;-4.222;2023-04-24T09:56:02;13.90;87.00
44431;DHT22;30135;47.866;-4.222;2023-04-24T09:58:29;14.00;87.10
44431;DHT22;30135;47.866;-4.222;2023-04-24T10:00:56;14.00;87.20
44431;DHT22;30135;47.866;-4.222;2023-04-24T10:03:26;14.10;87.20
44431;DHT22;30135;47.866;-4.222;2023-04-24T10:05:59;14.10;86.90
44431;DHT22;30135;47.866;-4.222;2023-04-24T10:08:34;14.10;86.60
44431;DHT22;30135;47.866;-4.222;2023-04-24T10:11:01;14.00;86.30
44431;DHT22;30135;47.866;-4.222;2023-04-24T10:13:28;14.10;86.40
44431;DHT22;30135;47.866;-4.222;2023-04-24T10:15:54;14.10;86.40
44431;DHT22;30135;47.866;-4.222;2023-04-24T10:18:22;14.10;86.30
44431;DHT22;30135;47.866;-4.222;2023-04-24T10:20:48;14.10;86.30
44431;DHT22;30135;47.866;-4.222;2023-04-24T10:23:15;14.10;86.50
44431;DHT22;30135;47.866;-4.222;2023-04-24T10:25:45;14.20;86.40
44431;DHT22;30135;47.866;-4.222;2023-04-24T10:28:11;14.20;86.20
44431;DHT22;30135;47.866;-4.222;2023-04-24T10:30:39;14.30;85.90
44431;DHT22;30135;47.866;-4.222;2023-04-24T10:33:08;14.40;85.70
44431;DHT22;30135;47.866;-4.222;2023-04-24T10:35:38;14.40;85.40
44431;DHT22;30135;47.866;-4.222;2023-04-24T10:38:16;14.40;85.10
44431;DHT22;30135;47.866;-4.222;2023-04-24T10:40:44;14.40;84.90
44431;DHT22;30135;47.866;-4.222;2023-04-24T10:43:10;14.40;84.70
44431;DHT22;30135;47.866;-4.222;2023-04-24T10:46:00;14.40;85.00
44431;DHT22;30135;47.866;-4.222;2023-04-24T10:48:28;14.40;84.50
44431;DHT22;30135;47.866;-4.222;2023-04-24T10:51:01;14.40;84.70
44431;DHT22;30135;47.866;-4.222;2023-04-24T10:53:29;14.50;84.70
44431;DHT22;30135;47.866;-4.222;2023-04-24T10:56:09;14.60;84.30
44431;DHT22;30135;47.866;-4.222;2023-04-24T11:01:08;14.70;83.80
44431;DHT22;30135;47.866;-4.222;2023-04-24T11:03:35;14.90;83.50
44431;DHT22;30135;47.866;-4.222;2023-04-24T11:06:08;14.90;83.00
44431;DHT22;30135;47.866;-4.222;2023-04-24T11:08:43;15.10;82.30
44431;DHT22;30135;47.866;-4.222;2023-04-24T11:11:11;15.10;81.90
44431;DHT22;30135;47.866;-4.222;2023-04-24T11:16:53;15.30;80.60
44431;DHT22;30135;47.866;-4.222;2023-04-24T11:19:24;15.30;80.70
44431;DHT22;30135;47.866;-4.222;2023-04-24T11:22:02;15.30;80.70
44431;DHT22;30135;47.866;-4.222;2023-04-24T11:32:36;15.30;80.70
44431;DHT22;30135;47.866;-4.222;2023-04-24T11:35:20;15.30;80.70
44431;DHT22;30135;47.866;-4.222;2023-04-24T11:37:52;15.30;80.80
44431;DHT22;30135;47.866;-4.222;2023-04-24T11:40:20;15.40;80.70
44431;DHT22;30135;47.866;-4.222;2023-04-24T11:42:52;15.40;80.60
44431;DHT22;30135;47.866;-4.222;2023-04-24T11:45:30;15.40;80.60
44431;DHT22;30135;47.866;-4.222;2023-04-24T11:47:57;15.40;80.60
44431;DHT22;30135;47.866;-4.222;2023-04-24T11:50:26;15.40;80.40
44431;DHT22;30135;47.866;-4.222;2023-04-24T11:52:53;15.40;80.00
44431;DHT22;30135;47.866;-4.222;2023-04-24T11:57:46;15.40;79.80
44431;DHT22;30135;47.866;-4.222;2023-04-24T12:00:18;15.30;79.70
44431;DHT22;30135;47.866;-4.222;2023-04-24T12:02:46;15.30;79.80
44431;DHT22;30135;47.866;-4.222;2023-04-24T12:05:26;15.30;79.60
44431;DHT22;30135;47.866;-4.222;2023-04-24T12:07:53;15.30;79.60
44431;DHT22;30135;47.866;-4.222;2023-04-24T12:10:24;15.40;79.80
44431;DHT22;30135;47.866;-4.222;2023-04-24T12:12:51;15.40;79.70
44431;DHT22;30135;47.866;-4.222;2023-04-24T12:15:19;15.50;79.90
44431;DHT22;30135;47.866;-4.222;2023-04-24T12:17:46;15.50;79.50
44431;DHT22;30135;47.866;-4.222;2023-04-24T12:20:13;15.50;79.30
44431;DHT22;30135;47.866;-4.222;2023-04-24T12:22:47;15.50;79.20
44431;DHT22;30135;47.866;-4.222;2023-04-24T12:25:22;15.50;79.10
44431;DHT22;30135;47.866;-4.222;2023-04-24T12:27:55;15.50;79.20
44431;DHT22;30135;47.866;-4.222;2023-04-24T12:30:48;15.50;79.00
44431;DHT22;30135;47.866;-4.222;2023-04-24T12:33:21;15.50;79.00
44431;DHT22;30135;47.866;-4.222;2023-04-24T12:35:51;15.50;79.00
44431;DHT22;30135;47.866;-4.222;2023-04-24T12:38:25;15.60;79.00
44431;DHT22;30135;47.866;-4.222;2023-04-24T12:41:22;15.70;78.70
44431;DHT22;30135;47.866;-4.222;2023-04-24T12:43:52;15.80;78.20
44431;DHT22;30135;47.866;-4.222;2023-04-24T12:46:19;15.80;78.40
44431;DHT22;30135;47.866;-4.222;2023-04-24T12:48:45;15.90;78.00
44431;DHT22;30135;47.866;-4.222;2023-04-24T12:51:11;15.90;77.70
44431;DHT22;30135;47.866;-4.222;2023-04-24T12:53:37;16.00;77.60
44431;DHT22;30135;47.866;-4.222;2023-04-24T12:56:03;15.90;77.30
44431;DHT22;30135;47.866;-4.222;2023-04-24T12:58:30;16.00;77.20
44431;DHT22;30135;47.866;-4.222;2023-04-24T13:00:56;16.00;77.20
44431;DHT22;30135;47.866;-4.222;2023-04-24T13:03:22;15.90;77.00
44431;DHT22;30135;47.866;-4.222;2023-04-24T13:05:48;15.90;76.70
44431;DHT22;30135;47.866;-4.222;2023-04-24T13:08:14;15.90;76.70
44431;DHT22;30135;47.866;-4.222;2023-04-24T13:10:40;15.90;76.70
44431;DHT22;30135;47.866;-4.222;2023-04-24T13:13:07;15.80;76.80
44431;DHT22;30135;47.866;-4.222;2023-04-24T13:15:33;15.80;76.90
44431;DHT22;30135;47.866;-4.222;2023-04-24T13:17:59;15.70;76.80
44431;DHT22;30135;47.866;-4.222;2023-04-24T13:20:26;15.70;76.80
44431;DHT22;30135;47.866;-4.222;2023-04-24T13:22:52;15.60;77.00
44431;DHT22;30135;47.866;-4.222;2023-04-24T13:25:18;15.60;77.10
44431;DHT22;30135;47.866;-4.222;2023-04-24T13:27:50;15.60;77.30
44431;DHT22;30135;47.866;-4.222;2023-04-24T13:30:16;15.70;77.50
44431;DHT22;30135;47.866;-4.222;2023-04-24T13:32:43;15.70;77.00
44431;DHT22;30135;47.866;-4.222;2023-04-24T13:35:09;15.70;76.20
44431;DHT22;30135;47.866;-4.222;2023-04-24T13:37:35;15.70;76.10
44431;DHT22;30135;47.866;-4.222;2023-04-24T13:40:01;15.80;76.20
44431;DHT22;30135;47.866;-4.222;2023-04-24T13:42:27;15.80;76.30
44431;DHT22;30135;47.866;-4.222;2023-04-24T13:44:53;15.80;76.40
44431;DHT22;30135;47.866;-4.222;2023-04-24T13:47:19;15.90;76.50
44431;DHT22;30135;47.866;-4.222;2023-04-24T13:49:45;16.00;76.30
44431;DHT22;30135;47.866;-4.222;2023-04-24T13:52:15;16.00;76.00
44431;DHT22;30135;47.866;-4.222;2023-04-24T13:54:41;16.10;75.90
44431;DHT22;30135;47.866;-4.222;2023-04-24T13:57:13;16.10;75.60
44431;DHT22;30135;47.866;-4.222;2023-04-24T13:59:40;16.10;75.10
44431;DHT22;30135;47.866;-4.222;2023-04-24T14:02:06;16.10;74.70
44431;DHT22;30135;47.866;-4.222;2023-04-24T14:04:32;16.00;74.70
44431;DHT22;30135;47.866;-4.222;2023-04-24T14:06:59;16.00;74.70
44431;DHT22;30135;47.866;-4.222;2023-04-24T14:09:25;15.90;74.90
44431;DHT22;30135;47.866;-4.222;2023-04-24T14:11:54;15.90;75.30
44431;DHT22;30135;47.866;-4.222;2023-04-24T14:14:21;15.90;75.30
44431;DHT22;30135;47.866;-4.222;2023-04-24T14:16:47;15.90;75.40
44431;DHT22;30135;47.866;-4.222;2023-04-24T14:19:13;16.00;75.40
44431;DHT22;30135;47.866;-4.222;2023-04-24T14:21:39;16.00;75.40
44431;DHT22;30135;47.866;-4.222;2023-04-24T14:24:05;16.00;75.10
44431;DHT22;30135;47.866;-4.222;2023-04-24T14:26:31;16.00;75.00
44431;DHT22;30135;47.866;-4.222;2023-04-24T14:28:58;16.10;75.10
44431;DHT22;30135;47.866;-4.222;2023-04-24T14:31:24;16.10;76.00
44431;DHT22;30135;47.866;-4.222;2023-04-24T14:33:50;16.20;74.80
44431;DHT22;30135;47.866;-4.222;2023-04-24T14:36:16;16.10;74.70
44431;DHT22;30135;47.866;-4.222;2023-04-24T14:38:42;16.10;74.60
44431;DHT22;30135;47.866;-4.222;2023-04-24T14:41:08;16.10;74.50
44431;DHT22;30135;47.866;-4.222;2023-04-24T14:43:36;16.20;74.20
44431;DHT22;30135;47.866;-4.222;2023-04-24T14:46:02;16.20;73.80
44431;DHT22;30135;47.866;-4.222;2023-04-24T14:48:29;16.20;73.50
44431;DHT22;30135;47.866;-4.222;2023-04-24T14:50:55;16.20;73.70
44431;DHT22;30135;47.866;-4.222;2023-04-24T14:53:21;16.20;73.70
44431;DHT22;30135;47.866;-4.222;2023-04-24T14:55:47;16.20;73.60
44431;DHT22;30135;47.866;-4.222;2023-04-24T14:58:13;16.30;73.50
44431;DHT22;30135;47.866;-4.222;2023-04-24T15:00:40;16.30;73.60
44431;DHT22;30135;47.866;-4.222;2023-04-24T15:03:06;16.30;73.70
44431;DHT22;30135;47.866;-4.222;2023-04-24T15:05:32;16.30;73.60
44431;DHT22;30135;47.866;-4.222;2023-04-24T15:07:58;16.30;73.60
44431;DHT22;30135;47.866;-4.222;2023-04-24T15:10:25;16.20;73.60
44431;DHT22;30135;47.866;-4.222;2023-04-24T15:12:51;16.20;73.50
44431;DHT22;30135;47.866;-4.222;2023-04-24T15:15:17;16.10;73.30
44431;DHT22;30135;47.866;-4.222;2023-04-24T15:17:43;16.10;73.20
44431;DHT22;30135;47.866;-4.222;2023-04-24T15:20:09;16.10;73.40
44431;DHT22;30135;47.866;-4.222;2023-04-24T15:22:36;16.10;73.40
44431;DHT22;30135;47.866;-4.222;2023-04-24T15:25:05;16.10;73.60
44431;DHT22;30135;47.866;-4.222;2023-04-24T15:27:42;16.10;73.70
44431;DHT22;30135;47.866;-4.222;2023-04-24T15:30:09;16.20;73.80
44431;DHT22;30135;47.866;-4.222;2023-04-24T15:33:02;16.20;73.80